Time;durP1;ratioP1;P1;durP2;ratioP2;P2;SDS_P1;SDS_P2;PMS_P1;PMS_P2;Temp;Humidity;BMP_temperature;BMP_pressure;BME280_temperature;BME280_humidity;BME280_pressure;Samples;Min_cycle;Max_cycle;Signal;HPM_P1;HPM_P2
2023/10/11 00:00:33;;;;;;;14.57;6.47;;;18.20;99.90;;;;;;5042010;28;20036;-73
2023/10/11 00:03:05;;;;;;;14.90;7.43;;;18.20;99.90;;;;;;5040110;28;20104;-73
2023/10/11 00:05:39;;;;;;;9.85;6.70;;;18.20;99.90;;;;;;5039681;28;20059;-73
2023/10/11 00:08:08;;;;;;;14.88;7.03;;;18.20;99.90;;;;;;5040472;28;20021;-73
2023/10/11 00:10:42;;;;;;;15.48;7.53;;;18.10;99.90;;;;;;5040351;28;20090;-72
2023/10/11 00:13:11;;;;;;;14.80;7.50;;;18.10;99.90;;;;;;5040138;28;20021;-73
2023/10/11 00:15:38;;;;;;;15.25;6.82;;;18.10;99.90;;;;;;5039831;28;20103;-73
2023/10/11 00:18:04;;;;;;;11.68;6.78;;;18.10;99.90;;;;;;5040330;28;20108;-74
2023/10/11 00:20:35;;;;;;;10.02;6.00;;;18.10;99.90;;;;;;5039629;28;20100;-72
2023/10/11 00:23:01;;;;;;;14.82;6.38;;;18.10;99.90;;;;;;5040455;28;20020;-73
2023/10/11 00:25:27;;;;;;;14.13;7.05;;;18.10;99.90;;;;;;5038743;28;20041;-74
2023/10/11 00:27:58;;;;;;;12.40;7.25;;;18.10;99.90;;;;;;5040087;28;20769;-73
2023/10/11 00:30:29;;;;;;;12.20;6.30;;;18.10;99.90;;;;;;5040395;28;20094;-73
2023/10/11 00:32:58;;;;;;;11.25;6.07;;;18.10;99.90;;;;;;5041240;28;20033;-72
2023/10/11 00:35:24;;;;;;;10.15;6.10;;;18.00;99.90;;;;;;5033281;28;20521;-73
2023/10/11 00:37:52;;;;;;;12.25;6.65;;;18.00;99.90;;;;;;5036536;28;20021;-73
2023/10/11 00:40:25;;;;;;;9.77;6.05;;;18.00;99.90;;;;;;5040556;28;20369;-73
2023/10/11 00:42:54;;;;;;;14.32;6.22;;;18.00;99.90;;;;;;5041399;28;20036;-73
2023/10/11 00:45:23;;;;;;;9.68;6.28;;;18.00;99.90;;;;;;5039537;28;20025;-74
2023/10/11 00:47:53;;;;;;;10.90;6.30;;;18.00;99.90;;;;;;5039478;28;20055;-73
2023/10/11 00:50:30;;;;;;;13.05;6.68;;;18.00;99.90;;;;;;5040580;28;22445;-74
2023/10/11 00:52:57;;;;;;;11.20;7.05;;;18.00;99.90;;;;;;5041377;28;20029;-73
2023/10/11 00:55:23;;;;;;;14.63;6.25;;;18.00;99.90;;;;;;5043859;28;20041;-72
2023/10/11 00:57:53;;;;;;;9.73;6.47;;;18.00;99.90;;;;;;5043550;28;20028;-73
2023/10/11 01:00:23;;;;;;;12.10;6.53;;;18.00;99.90;;;;;;5042082;28;20033;-72
2023/10/11 01:02:52;;;;;;;10.70;6.47;;;18.00;99.90;;;;;;5041825;28;20028;-73
2023/10/11 01:05:18;;;;;;;13.85;6.47;;;18.00;99.90;;;;;;5042877;28;20067;-73
2023/10/11 01:07:45;;;;;;;12.10;6.75;;;18.00;99.90;;;;;;5042777;28;20031;-74
2023/10/11 01:10:11;;;;;;;13.75;6.93;;;18.00;99.90;;;;;;5041046;28;20051;-72
2023/10/11 01:12:40;;;;;;;13.50;7.00;;;18.00;99.90;;;;;;5041312;28;20021;-73
2023/10/11 01:15:15;;;;;;;13.60;6.82;;;17.90;99.90;;;;;;5040800;28;20111;-73
2023/10/11 01:17:41;;;;;;;17.45;7.60;;;17.90;99.90;;;;;;5041800;28;20056;-73
2023/10/11 01:20:17;;;;;;;13.85;6.45;;;17.90;99.90;;;;;;5043010;28;20032;-73
2023/10/11 01:22:46;;;;;;;10.30;6.63;;;17.90;99.90;;;;;;5043233;28;20033;-73
2023/10/11 01:25:21;;;;;;;13.48;6.95;;;17.90;99.90;;;;;;5038938;28;20087;-73
2023/10/11 01:27:48;;;;;;;11.30;6.90;;;17.90;99.90;;;;;;5042412;28;20116;-72
2023/10/11 01:30:14;;;;;;;14.85;8.70;;;17.80;99.90;;;;;;5042619;28;20037;-73
2023/10/11 01:32:43;;;;;;;16.95;6.40;;;17.80;99.90;;;;;;5041032;28;20047;-72
2023/10/11 01:35:19;;;;;;;11.25;6.38;;;17.80;99.90;;;;;;5043031;28;20017;-73
2023/10/11 01:37:45;;;;;;;15.32;7.55;;;17.80;99.90;;;;;;5044828;28;20048;-73
2023/10/11 01:40:20;;;;;;;12.90;6.80;;;17.80;99.90;;;;;;5040932;28;20099;-73
2023/10/11 01:42:52;;;;;;;15.27;7.30;;;17.80;99.90;;;;;;5040590;28;20647;-73
2023/10/11 01:45:23;;;;;;;12.75;5.75;;;17.80;99.90;;;;;;5042680;28;20025;-73
2023/10/11 01:47:50;;;;;;;9.50;6.13;;;17.80;99.90;;;;;;5045427;28;20179;-73
2023/10/11 01:50:17;;;;;;;13.02;7.75;;;17.80;99.90;;;;;;5042682;28;20095;-72
2023/10/11 01:52:47;;;;;;;12.07;6.43;;;17.80;99.90;;;;;;5053397;28;20021;-72
2023/10/11 01:55:14;;;;;;;13.40;6.80;;;17.70;99.90;;;;;;5047228;28;20071;-72
2023/10/11 01:57:48;;;;;;;13.73;6.50;;;17.70;99.90;;;;;;5047522;28;20032;-72
2023/10/11 02:00:24;;;;;;;13.80;6.78;;;17.70;99.90;;;;;;5039504;28;20057;-73
2023/10/11 02:02:56;;;;;;;13.13;6.57;;;17.70;99.90;;;;;;5046286;28;20029;-72
2023/10/11 02:05:25;;;;;;;12.38;7.10;;;17.60;99.90;;;;;;5041040;28;20033;-72
2023/10/11 02:07:51;;;;;;;15.02;7.55;;;17.60;99.90;;;;;;5052413;28;20036;-72
2023/10/11 02:10:27;;;;;;;12.00;7.00;;;17.60;99.90;;;;;;5046314;28;20032;-73
2023/10/11 02:12:56;;;;;;;15.90;7.50;;;17.60;99.90;;;;;;5043513;28;20036;-73
2023/10/11 02:15:27;;;;;;;12.27;6.20;;;17.60;99.90;;;;;;5044158;28;20107;-72
2023/10/11 02:17:54;;;;;;;11.63;6.55;;;17.60;99.90;;;;;;5041670;28;20029;-73
2023/10/11 02:20:22;;;;;;;11.98;7.22;;;17.60;99.90;;;;;;5046070;28;20026;-72
2023/10/11 02:22:56;;;;;;;13.25;6.78;;;17.50;99.90;;;;;;5052356;28;20482;-72
2023/10/11 02:25:25;;;;;;;11.98;6.93;;;17.50;99.90;;;;;;5042636;28;20029;-72
2023/10/11 02:27:55;;;;;;;9.38;6.22;;;17.50;99.90;;;;;;5046525;28;20035;-72
2023/10/11 02:30:24;;;;;;;12.38;6.43;;;17.40;99.90;;;;;;5043924;28;20047;-73
2023/10/11 02:32:51;;;;;;;15.20;8.10;;;17.40;99.90;;;;;;5045026;28;20021;-74
2023/10/11 02:35:26;;;;;;;11.68;6.32;;;17.40;99.90;;;;;;5050490;28;20111;-73
2023/10/11 02:37:55;;;;;;;15.70;8.02;;;17.40;99.90;;;;;;5046530;28;20017;-73
2023/10/11 02:40:24;;;;;;;19.05;7.68;;;17.40;99.90;;;;;;5044939;28;20025;-72
2023/10/11 02:42:56;;;;;;;11.90;6.70;;;17.40;99.90;;;;;;5052132;28;20474;-73
2023/10/11 02:45:23;;;;;;;10.50;6.33;;;17.40;99.90;;;;;;5039588;28;20083;-73
2023/10/11 02:47:49;;;;;;;12.63;7.05;;;17.40;99.90;;;;;;5045445;28;20322;-73
2023/10/11 02:50:15;;;;;;;12.85;7.40;;;17.30;99.90;;;;;;5042208;28;20041;-73
2023/10/11 02:52:41;;;;;;;14.88;7.70;;;17.30;99.90;;;;;;5049921;28;20035;-73
2023/10/11 02:55:20;;;;;;;14.95;7.25;;;17.40;99.90;;;;;;5042896;28;20022;-73
2023/10/11 02:57:46;;;;;;;13.18;7.43;;;17.40;99.90;;;;;;5040959;28;20083;-73
2023/10/11 03:00:21;;;;;;;11.13;6.80;;;17.30;99.90;;;;;;5041455;28;20526;-73
2023/10/11 03:02:54;;;;;;;16.05;6.85;;;17.40;99.90;;;;;;5044408;28;20056;-72
2023/10/11 03:05:27;;;;;;;11.68;7.45;;;17.30;99.90;;;;;;5034563;28;20040;-72
2023/10/11 03:08:13;;;;;;;14.25;7.70;;;17.30;99.90;;;;;;5028856;28;20091;-72
2023/10/11 03:10:43;;;;;;;12.57;6.07;;;17.30;99.90;;;;;;5038255;28;20037;-72
2023/10/11 03:13:47;;;;;;;10.93;6.45;;;17.30;99.90;;;;;;5039322;28;20021;-72
2023/10/11 03:16:11;;;;;;;13.77;7.30;;;17.30;99.90;;;;;;5039349;28;20030;-72
2023/10/11 03:18:39;;;;;;;12.65;6.85;;;17.20;99.90;;;;;;5029989;28;20029;-72
2023/10/11 03:21:16;;;;;;;10.23;7.05;;;17.20;99.90;;;;;;5042488;28;20032;-72
2023/10/11 03:23:43;;;;;;;11.43;6.85;;;17.20;99.90;;;;;;5043680;28;20027;-72
2023/10/11 03:26:31;;;;;;;13.85;6.93;;;17.20;99.90;;;;;;5044471;28;20018;-72
2023/10/11 03:29:04;;;;;;;17.77;7.25;;;17.20;99.90;;;;;;5039237;28;20521;-72
2023/10/11 03:31:32;;;;;;;14.82;6.82;;;17.20;99.90;;;;;;5047419;28;20048;-73
2023/10/11 03:33:59;;;;;;;12.43;7.10;;;17.20;99.90;;;;;;5042276;28;20023;-73
2023/10/11 03:36:35;;;;;;;13.55;6.72;;;17.20;99.90;;;;;;5044693;28;20075;-72
2023/10/11 03:39:10;;;;;;;16.55;7.55;;;17.20;99.90;;;;;;5041351;28;20436;-73
2023/10/11 03:41:36;;;;;;;11.30;7.00;;;17.10;99.90;;;;;;5042488;28;20119;-72
2023/10/11 03:44:11;;;;;;;11.93;7.65;;;17.10;99.90;;;;;;5044322;28;20096;-73
2023/10/11 03:46:38;;;;;;;13.93;7.45;;;17.10;99.90;;;;;;5039707;28;20021;-73
2023/10/11 03:51:43;;;;;;;14.73;7.05;;;17.00;99.90;;;;;;5042001;28;20110;-73
2023/10/11 03:54:24;;;;;;;19.42;7.20;;;16.90;99.90;;;;;;5046499;28;20033;-72
2023/10/11 03:56:53;;;;;;;14.35;7.22;;;17.00;99.90;;;;;;5042767;28;20037;-73
2023/10/11 03:59:20;;;;;;;12.30;7.18;;;17.00;99.90;;;;;;5026982;28;20017;-73
2023/10/11 04:01:46;;;;;;;13.52;7.50;;;17.00;99.90;;;;;;5030289;28;20028;-73
2023/10/11 04:04:12;;;;;;;17.25;7.45;;;17.00;99.90;;;;;;5045229;28;20056;-72
2023/10/11 04:06:38;;;;;;;15.98;7.45;;;16.90;99.90;;;;;;5029657;28;20591;-73
2023/10/11 04:09:11;;;;;;;14.93;7.65;;;16.90;99.90;;;;;;5025348;28;20129;-72
2023/10/11 04:12:03;;;;;;;15.80;7.65;;;16.90;99.90;;;;;;5044813;28;20041;-73
2023/10/11 04:14:39;;;;;;;11.60;7.15;;;16.90;99.90;;;;;;5050131;28;20090;-72
2023/10/11 04:17:14;;;;;;;15.02;8.00;;;17.00;99.90;;;;;;5037088;28;20033;-73
2023/10/11 04:19:42;;;;;;;15.02;7.10;;;16.90;99.90;;;;;;5037096;28;20112;-73
2023/10/11 04:22:17;;;;;;;17.15;7.57;;;16.90;99.90;;;;;;5041626;28;20434;-73
2023/10/11 04:24:45;;;;;;;17.63;7.50;;;16.90;99.90;;;;;;5042620;28;20082;-72
2023/10/11 04:29:50;;;;;;;14.07;8.20;;;16.90;99.90;;;;;;5042753;28;20047;-73
2023/10/11 04:32:40;;;;;;;13.25;7.88;;;16.90;99.90;;;;;;5039964;28;20029;-73
2023/10/11 04:35:21;;;;;;;13.93;7.95;;;16.90;99.90;;;;;;5042172;28;20029;-72
2023/10/11 04:38:01;;;;;;;15.60;7.20;;;16.90;99.90;;;;;;5041796;28;20030;-74
2023/10/11 04:43:08;;;;;;;21.05;7.80;;;16.80;99.90;;;;;;5043250;28;20040;-72
2023/10/11 04:45:44;;;;;;;15.65;7.03;;;16.80;99.90;;;;;;5039535;28;20029;-72
2023/10/11 04:48:18;;;;;;;14.43;7.55;;;16.80;99.90;;;;;;5041050;28;20034;-73
2023/10/11 04:50:50;;;;;;;13.18;7.55;;;16.70;99.90;;;;;;5046468;28;20179;-72
2023/10/11 04:53:21;;;;;;;16.20;8.70;;;16.70;99.90;;;;;;5044246;28;20030;-72
2023/10/11 04:56:01;;;;;;;12.98;7.07;;;16.70;99.90;;;;;;5040463;28;20029;-72
2023/10/11 05:01:08;;;;;;;13.75;7.70;;;16.70;99.90;;;;;;5045404;28;20044;-72
2023/10/11 05:03:37;;;;;;;14.77;8.40;;;16.60;99.90;;;;;;5039642;28;20028;-72
2023/10/11 05:06:13;;;;;;;14.93;7.63;;;16.60;99.90;;;;;;5046595;28;20025;-72
2023/10/11 05:08:51;;;;;;;14.75;7.50;;;16.60;99.90;;;;;;5043864;28;20025;-73
2023/10/11 05:11:39;;;;;;;16.42;7.57;;;16.60;99.90;;;;;;5038736;28;20037;-73
2023/10/11 05:14:10;;;;;;;13.57;7.47;;;16.60;99.90;;;;;;5041082;28;20418;-72
2023/10/11 05:16:38;;;;;;;17.33;7.40;;;16.60;99.90;;;;;;5038343;28;20033;-72
2023/10/11 05:19:06;;;;;;;17.00;7.28;;;16.60;99.90;;;;;;5039863;28;20297;-72
2023/10/11 05:21:38;;;;;;;13.02;7.35;;;16.50;99.90;;;;;;5028318;28;20068;-72
2023/10/11 05:24:29;;;;;;;18.65;7.60;;;16.60;99.90;;;;;;5041724;28;20040;-74
2023/10/11 05:27:25;;;;;;;14.32;7.47;;;16.50;99.90;;;;;;5036484;28;20056;-73
2023/10/11 05:32:36;;;;;;;13.57;8.45;;;16.60;99.90;;;;;;5041348;28;20478;-73
2023/10/11 05:51:28;;;;;;;12.68;6.90;;;16.60;99.90;;;;;;5040684;28;20083;-72
2023/10/11 05:53:55;;;;;;;14.68;6.30;;;16.60;99.90;;;;;;5050514;28;20025;-72
2023/10/11 05:56:21;;;;;;;14.50;7.22;;;16.60;99.90;;;;;;5039879;28;20517;-74
2023/10/11 05:58:51;;;;;;;12.27;8.02;;;16.60;99.90;;;;;;5032628;28;20522;-72
2023/10/11 06:01:22;;;;;;;11.77;7.20;;;16.50;99.90;;;;;;5050308;28;20109;-72
2023/10/11 06:03:51;;;;;;;14.13;7.60;;;16.60;99.90;;;;;;5044058;28;20082;-72
2023/10/11 06:06:38;;;;;;;15.45;7.80;;;16.60;99.90;;;;;;5045285;28;20104;-72
2023/10/11 06:09:16;;;;;;;17.70;7.90;;;16.60;99.90;;;;;;5042275;28;20025;-72
2023/10/11 06:11:47;;;;;;;14.48;7.72;;;16.70;99.90;;;;;;5037676;28;20046;-72
2023/10/11 06:14:16;;;;;;;13.50;8.50;;;16.60;99.90;;;;;;5040832;28;20024;-72
2023/10/11 06:16:49;;;;;;;16.85;7.60;;;16.60;99.90;;;;;;5044022;28;20052;-72
2023/10/11 06:19:16;;;;;;;16.05;7.80;;;16.50;99.90;;;;;;5041910;28;20021;-72
2023/10/11 06:21:59;;;;;;;20.88;7.05;;;16.60;99.90;;;;;;5051028;28;20083;-72
2023/10/11 06:24:24;;;;;;;;;;;16.60;99.90;;;;;;5051197;28;20617;-72
2023/10/11 06:26:55;;;;;;;18.50;7.82;;;16.60;99.90;;;;;;5037387;28;19921;-73
2023/10/11 06:29:26;;;;;;;13.63;7.20;;;16.60;99.90;;;;;;5045190;28;20997;-75
2023/10/11 06:31:55;;;;;;;12.55;7.05;;;16.70;99.90;;;;;;5033000;28;20049;-73
2023/10/11 06:36:50;;;;;;;14.60;6.53;;;16.60;99.90;;;;;;5042699;28;20087;-74
2023/10/11 06:42:24;;;;;;;14.60;6.95;;;16.70;99.90;;;;;;5047689;28;20065;-73
2023/10/11 06:44:57;;;;;;;10.98;7.10;;;16.70;99.90;;;;;;5042574;28;20363;-72
2023/10/11 06:47:25;;;;;;;15.15;7.32;;;16.80;99.90;;;;;;5041378;28;20037;-75
2023/10/11 06:49:56;;;;;;;15.05;6.82;;;16.70;99.90;;;;;;5041302;28;20648;-73
2023/10/11 06:52:30;;;;;;;16.35;6.97;;;16.60;99.90;;;;;;5051598;28;20027;-74
2023/10/11 06:57:51;;;;;;;13.43;6.82;;;16.70;99.90;;;;;;5045228;28;20124;-72
2023/10/11 07:00:28;;;;;;;16.80;7.43;;;16.70;99.90;;;;;;5038360;28;20111;-72
2023/10/11 07:03:08;;;;;;;14.57;7.28;;;16.70;99.90;;;;;;5023014;28;20083;-72
2023/10/11 07:05:40;;;;;;;13.43;7.38;;;16.80;99.90;;;;;;5029989;28;20499;-74
2023/10/11 07:08:08;;;;;;;18.92;7.10;;;16.80;99.90;;;;;;5040288;28;20418;-74
2023/10/11 07:10:34;;;;;;;14.23;6.55;;;16.90;99.90;;;;;;5035732;28;20037;-73
2023/10/11 07:13:05;;;;;;;13.68;6.88;;;17.00;99.90;;;;;;5038202;28;20029;-73
2023/10/11 07:15:38;;;;;;;12.13;7.13;;;16.90;99.90;;;;;;5049318;28;20474;-73
2023/10/11 07:18:22;;;;;;;9.13;6.70;;;17.00;99.90;;;;;;5039055;28;20031;-72
2023/10/11 07:20:48;;;;;;;16.10;8.15;;;17.00;99.90;;;;;;5035994;28;20030;-73
2023/10/11 07:23:20;;;;;;;13.18;7.40;;;17.00;99.90;;;;;;5040339;28;20021;-72
2023/10/11 07:26:22;;;;;;;12.27;7.30;;;17.00;99.90;;;;;;5023111;28;20049;-72
2023/10/11 07:28:51;;;;;;;10.98;6.43;;;17.00;99.90;;;;;;5048263;28;20391;-73
2023/10/11 07:31:18;;;;;;;14.02;7.50;;;17.10;99.90;;;;;;5026776;28;20052;-73
2023/10/11 07:33:55;;;;;;;13.60;6.70;;;17.20;99.90;;;;;;5036394;28;20025;-73
2023/10/11 07:36:22;;;;;;;16.50;7.45;;;17.20;99.90;;;;;;5037601;28;20037;-75
2023/10/11 07:38:54;;;;;;;19.05;7.13;;;17.30;99.90;;;;;;5038018;28;20025;-75
2023/10/11 07:41:27;;;;;;;17.35;6.75;;;17.30;99.90;;;;;;5041739;28;20021;-74
2023/10/11 07:43:55;;;;;;;16.40;7.47;;;17.40;99.90;;;;;;5043295;28;20367;-74
2023/10/11 07:46:22;;;;;;;13.20;7.57;;;17.40;99.90;;;;;;5031147;28;20114;-73
2023/10/11 07:48:48;;;;;;;12.43;7.95;;;17.40;99.90;;;;;;5038419;28;20036;-73
2023/10/11 07:51:14;;;;;;;13.70;7.32;;;17.50;99.90;;;;;;5042420;28;20386;-73
2023/10/11 07:53:43;;;;;;;14.77;8.43;;;17.50;99.90;;;;;;5047292;28;20025;-73
2023/10/11 07:56:10;;;;;;;14.50;7.45;;;17.60;99.90;;;;;;5035184;28;20521;-73
2023/10/11 07:58:36;;;;;;;12.52;8.32;;;17.60;99.90;;;;;;5033462;28;20031;-75
2023/10/11 08:01:12;;;;;;;14.75;7.38;;;17.60;99.90;;;;;;5036801;28;20395;-74
2023/10/11 08:03:46;;;;;;;15.55;6.72;;;17.60;99.90;;;;;;5043914;28;20024;-73
2023/10/11 08:06:14;;;;;;;16.35;7.82;;;17.70;99.90;;;;;;5050747;28;20068;-73
2023/10/11 08:08:40;;;;;;;11.43;7.38;;;17.80;99.90;;;;;;5030705;28;20074;-73
2023/10/11 08:11:22;;;;;;;11.82;7.28;;;17.80;99.90;;;;;;5036658;28;20049;-72
2023/10/11 08:13:49;;;;;;;16.33;8.05;;;17.80;99.90;;;;;;5040902;28;20032;-74
2023/10/11 08:16:18;;;;;;;15.45;7.35;;;17.90;99.90;;;;;;5039136;28;20053;-74
2023/10/11 08:18:48;;;;;;;13.32;7.50;;;18.00;99.90;;;;;;5043352;28;20036;-74
2023/10/11 08:21:17;;;;;;;15.10;7.88;;;18.00;99.90;;;;;;5031057;28;20044;-74
2023/10/11 08:23:43;;;;;;;13.18;8.10;;;18.10;99.90;;;;;;5047046;28;20037;-74
2023/10/11 08:26:14;;;;;;;13.85;7.53;;;18.20;99.90;;;;;;5047696;28;20074;-74
2023/10/11 08:28:49;;;;;;;15.40;8.40;;;18.20;99.90;;;;;;5043251;28;20037;-74
2023/10/11 08:33:58;;;;;;;12.38;8.00;;;18.30;99.90;;;;;;5045008;28;20389;-74
2023/10/11 08:36:29;;;;;;;13.80;8.50;;;18.40;99.90;;;;;;5048198;28;20505;-74
2023/10/11 08:38:56;;;;;;;11.48;7.15;;;18.50;99.90;;;;;;5042405;28;20025;-75
2023/10/11 08:41:22;;;;;;;13.63;7.75;;;18.50;99.90;;;;;;5037708;28;20024;-74
2023/10/11 08:43:49;;;;;;;15.27;7.88;;;18.50;99.90;;;;;;5045692;28;20087;-74
2023/10/11 08:46:18;;;;;;;13.27;7.47;;;18.60;99.90;;;;;;5032020;28;20459;-73
2023/10/11 08:48:49;;;;;;;13.20;7.85;;;18.70;99.90;;;;;;5042995;28;20029;-74
2023/10/11 08:51:21;;;;;;;14.10;8.15;;;18.80;99.90;;;;;;5038429;28;20106;-75
2023/10/11 08:53:47;;;;;;;12.50;8.38;;;18.80;99.90;;;;;;5045828;28;20029;-75
2023/10/11 08:56:17;;;;;;;15.77;7.22;;;18.80;99.90;;;;;;5048084;28;20040;-75
2023/10/11 08:58:51;;;;;;;16.30;8.02;;;18.80;99.90;;;;;;5038736;28;20394;-74
2023/10/11 09:01:17;;;;;;;11.25;6.90;;;19.00;99.90;;;;;;5045982;28;20035;-75
2023/10/11 09:04:00;;;;;;;19.17;8.07;;;19.00;99.90;;;;;;5045695;28;20034;-75
2023/10/11 09:06:26;;;;;;;13.90;7.63;;;19.10;99.90;;;;;;5048277;28;20394;-74
2023/10/11 09:08:52;;;;;;;15.68;7.38;;;19.20;99.90;;;;;;5031288;28;20039;-74
2023/10/11 09:11:32;;;;;;;16.10;7.40;;;19.40;99.90;;;;;;5048928;28;20033;-75
2023/10/11 09:14:23;;;;;;;14.57;7.43;;;19.50;99.90;;;;;;5046293;28;20017;-74
2023/10/11 09:16:51;;;;;;;18.65;7.88;;;19.70;99.90;;;;;;5045209;28;20059;-74
2023/10/11 09:19:19;;;;;;;11.25;7.20;;;19.90;99.90;;;;;;5042712;28;20554;-74
2023/10/11 09:22:04;;;;;;;15.32;7.95;;;19.90;99.90;;;;;;5044799;28;20028;-75
2023/10/11 09:24:41;;;;;;;12.02;7.88;;;20.00;99.90;;;;;;5042981;28;20078;-75
2023/10/11 09:29:43;;;;;;;17.38;7.82;;;20.20;99.90;;;;;;5042113;28;20045;-74
2023/10/11 09:32:09;;;;;;;14.45;8.30;;;20.30;99.90;;;;;;5043839;28;20048;-74
2023/10/11 09:34:41;;;;;;;22.92;8.80;;;20.30;99.90;;;;;;5045217;28;20048;-75
2023/10/11 09:37:11;;;;;;;18.87;8.30;;;20.40;99.90;;;;;;5030076;28;20033;-74
2023/10/11 09:39:42;;;;;;;19.38;8.07;;;20.50;99.90;;;;;;5043992;28;20113;-76
2023/10/11 09:42:13;;;;;;;14.05;8.82;;;20.60;99.90;;;;;;5050052;28;20021;-75
2023/10/11 09:44:43;;;;;;;17.50;7.88;;;20.70;99.90;;;;;;5046795;28;20018;-75
2023/10/11 09:47:19;;;;;;;19.45;9.80;;;20.80;99.90;;;;;;5041329;28;20020;-75
2023/10/11 09:49:52;;;;;;;19.55;8.75;;;20.80;99.90;;;;;;5043074;28;20128;-75
2023/10/11 09:52:23;;;;;;;17.50;8.73;;;21.00;99.90;;;;;;5052220;28;20474;-74
2023/10/11 09:54:51;;;;;;;15.98;8.93;;;21.00;99.90;;;;;;5034510;28;20043;-74
2023/10/11 09:57:33;;;;;;;24.13;9.65;;;21.00;99.90;;;;;;5050426;28;20405;-75
2023/10/11 10:00:17;;;;;;;14.45;9.75;;;21.20;99.90;;;;;;5020598;28;20113;-75
2023/10/11 10:02:50;;;;;;;19.63;8.88;;;21.20;99.90;;;;;;5047251;28;20025;-75
2023/10/11 10:05:16;;;;;;;;;;;21.30;99.90;;;;;;5044245;28;20096;-75
2023/10/11 10:07:43;;;;;;;17.42;9.18;;;21.20;99.90;;;;;;5047746;28;19944;-75
2023/10/11 10:10:11;;;;;;;16.73;9.02;;;21.30;99.90;;;;;;5032661;28;20490;-75
2023/10/11 10:12:57;;;;;;;18.63;9.75;;;21.20;99.90;;;;;;5046792;28;20030;-75
2023/10/11 10:15:24;;;;;;;19.50;9.57;;;21.30;99.90;;;;;;5046453;28;20039;-74
2023/10/11 10:18:01;;;;;;;20.05;10.57;;;21.30;99.90;;;;;;5047608;28;20108;-75
2023/10/11 10:23:16;;;;;;;15.93;9.07;;;21.50;99.90;;;;;;5045695;28;20120;-75
2023/10/11 10:25:47;;;;;;;17.15;9.68;;;21.70;99.90;;;;;;5049725;28;20071;-74
2023/10/11 10:28:34;;;;;;;15.35;9.55;;;21.80;99.90;;;;;;5044731;28;20029;-74
2023/10/11 10:31:11;;;;;;;18.55;8.60;;;21.90;99.90;;;;;;5044603;28;20086;-73
2023/10/11 10:33:41;;;;;;;21.27;10.40;;;22.10;99.90;;;;;;5044301;28;20029;-73
2023/10/11 10:36:22;;;;;;;15.02;8.98;;;22.20;99.90;;;;;;5042455;28;20037;-73
2023/10/11 10:41:41;;;;;;;16.08;9.68;;;22.30;99.90;;;;;;5042282;28;20064;-73
2023/10/11 10:44:17;;;;;;;23.35;9.75;;;22.20;99.90;;;;;;5048319;28;20617;-77
2023/10/11 10:46:51;;;;;;;14.38;9.40;;;22.30;99.90;;;;;;5048546;28;20486;-76
2023/10/11 10:49:18;;;;;;;15.95;9.20;;;22.40;99.90;;;;;;5048990;28;20111;-77
2023/10/11 10:51:53;;;;;;;21.58;10.20;;;22.50;99.90;;;;;;5051029;28;20066;-76
2023/10/11 10:54:23;;;;;;;20.65;10.27;;;22.50;99.90;;;;;;5044217;28;20023;-78
2023/10/11 10:56:53;;;;;;;16.92;9.75;;;22.50;99.90;;;;;;5048581;28;20025;-78
2023/10/11 10:59:20;;;;;;;16.80;9.93;;;22.50;99.90;;;;;;5051191;28;20017;-77
2023/10/11 11:01:48;;;;;;;22.65;11.18;;;22.60;99.90;;;;;;5041824;28;20029;-78
2023/10/11 11:04:20;;;;;;;22.70;11.25;;;22.60;99.90;;;;;;5027576;28;20037;-76
2023/10/11 11:06:50;;;;;;;25.20;11.63;;;22.50;99.90;;;;;;5030348;28;20025;-77
2023/10/11 11:09:27;;;;;;;29.40;11.55;;;22.50;99.90;;;;;;5041144;28;20500;-77
2023/10/11 11:11:57;;;;;;;20.42;10.50;;;22.60;99.90;;;;;;5038523;28;20385;-77
2023/10/11 11:14:24;;;;;;;23.05;11.20;;;22.70;99.90;;;;;;5046676;28;20033;-77
2023/10/11 11:16:57;;;;;;;19.30;11.50;;;22.60;99.90;;;;;;5038366;28;20099;-75
2023/10/11 11:19:26;;;;;;;19.52;11.70;;;22.70;99.90;;;;;;5042178;28;20051;-75
2023/10/11 11:22:19;;;;;;;20.10;10.70;;;22.60;99.90;;;;;;5043629;28;20040;-76
2023/10/11 11:24:46;;;;;;;19.02;9.23;;;22.70;99.90;;;;;;5045439;28;20056;-77
2023/10/11 11:27:25;;;;;;;25.02;11.43;;;22.70;99.90;;;;;;5039463;28;20490;-77
2023/10/11 11:29:52;;;;;;;19.92;10.75;;;22.60;99.90;;;;;;5045998;28;20188;-77
2023/10/11 11:32:36;;;;;;;22.58;10.55;;;22.50;99.90;;;;;;5046829;28;20116;-78
2023/10/11 11:35:04;;;;;;;19.67;9.55;;;22.70;99.90;;;;;;5039786;28;20030;-77
2023/10/11 11:37:31;;;;;;;19.60;10.77;;;22.70;99.90;;;;;;5045388;28;20083;-77
2023/10/11 11:42:49;;;;;;;18.45;9.82;;;22.70;99.90;;;;;;5041247;28;20040;-77
2023/10/11 11:45:18;;;;;;;19.45;10.15;;;22.70;99.90;;;;;;5044408;28;20035;-77
2023/10/11 11:47:55;;;;;;;18.98;9.32;;;22.90;99.90;;;;;;5040894;28;20108;-78
2023/10/11 11:50:23;;;;;;;19.30;10.40;;;23.00;99.90;;;;;;5036633;28;20438;-78
2023/10/11 11:52:50;;;;;;;17.50;10.57;;;22.90;99.90;;;;;;5046425;28;20382;-77
2023/10/11 11:55:16;;;;;;;17.85;10.60;;;23.00;99.90;;;;;;5044721;28;20017;-76
2023/10/11 11:57:43;;;;;;;23.10;9.88;;;22.90;99.90;;;;;;5013321;28;20040;-77
2023/10/11 12:02:54;;;;;;;19.30;10.48;;;23.00;99.90;;;;;;5038719;28;20029;-78
2023/10/11 12:05:21;;;;;;;17.63;9.88;;;23.10;99.90;;;;;;5042122;28;20017;-77
2023/10/11 12:07:50;;;;;;;17.63;10.15;;;23.10;99.90;;;;;;5022530;28;20021;-78
2023/10/11 12:10:25;;;;;;;18.40;9.48;;;23.10;99.90;;;;;;5023080;28;20115;-77
2023/10/11 12:12:55;;;;;;;18.65;9.85;;;23.20;99.90;;;;;;5039191;28;20021;-78
2023/10/11 12:15:21;;;;;;;17.60;9.13;;;23.20;99.90;;;;;;5038795;28;20033;-78
2023/10/11 12:17:54;;;;;;;17.80;9.25;;;23.30;99.90;;;;;;5037214;28;20025;-77
2023/10/11 12:20:22;;;;;;;18.25;9.35;;;23.30;99.90;;;;;;5040619;28;20462;-76
2023/10/11 12:22:50;;;;;;;18.77;9.40;;;23.20;99.90;;;;;;5039692;28;20033;-78
2023/10/11 12:25:24;;;;;;;19.35;9.38;;;23.20;99.90;;;;;;5040884;28;20104;-78
2023/10/11 12:27:51;;;;;;;23.23;9.60;;;23.10;99.90;;;;;;5037983;28;20153;-78
2023/10/11 12:30:19;;;;;;;20.42;8.10;;;23.20;99.90;;;;;;5037801;28;20068;-78
2023/10/11 12:32:46;;;;;;;16.70;8.38;;;23.30;99.90;;;;;;5031808;28;20028;-78
2023/10/11 12:35:13;;;;;;;21.05;9.68;;;23.20;99.90;;;;;;5039741;28;20390;-78
2023/10/11 12:37:43;;;;;;;21.65;8.32;;;23.20;99.90;;;;;;5037662;28;20071;-77
2023/10/11 12:40:13;;;;;;;21.90;8.27;;;23.20;99.90;;;;;;5018321;28;20429;-78
2023/10/11 12:42:46;;;;;;;15.00;8.02;;;23.20;99.90;;;;;;5038471;28;20118;-78
2023/10/11 12:45:16;;;;;;;;;;;23.20;99.90;;;;;;5039520;28;20546;-77
2023/10/11 12:47:43;;;;;;;24.33;8.52;;;23.20;99.90;;;;;;5043512;28;19916;-77
2023/10/11 12:50:09;;;;;;;23.25;8.45;;;23.30;99.90;;;;;;5039693;28;20037;-77
2023/10/11 12:52:37;;;;;;;17.63;8.35;;;23.30;99.90;;;;;;5023545;28;20488;-78
2023/10/11 12:55:06;;;;;;;22.55;8.50;;;23.30;99.90;;;;;;5024412;28;20813;-78
2023/10/11 12:57:32;;;;;;;22.70;7.97;;;23.30;99.90;;;;;;5020608;28;20037;-78
2023/10/11 12:59:58;;;;;;;21.48;7.63;;;23.20;99.90;;;;;;5042926;28;20013;-77
2023/10/11 13:02:33;;;;;;;21.60;7.38;;;23.20;99.90;;;;;;5036760;28;20043;-75
2023/10/11 13:04:59;;;;;;;14.90;7.78;;;23.20;99.90;;;;;;5041224;28;20101;-75
2023/10/11 13:07:29;;;;;;;20.73;8.30;;;23.20;99.90;;;;;;5038991;28;20052;-75
2023/10/11 13:10:02;;;;;;;16.80;6.78;;;23.10;99.90;;;;;;5042319;28;20108;-77
2023/10/11 13:12:34;;;;;;;20.75;7.80;;;23.20;99.90;;;;;;5042011;28;20068;-75
2023/10/11 13:15:02;;;;;;;19.98;8.23;;;23.20;99.90;;;;;;5039591;28;20605;-75
2023/10/11 13:17:28;;;;;;;15.63;7.43;;;23.30;99.90;;;;;;5043351;28;20030;-75
2023/10/11 13:19:53;;;;;;;22.88;7.82;;;23.30;99.90;;;;;;5044247;28;20102;-76
2023/10/11 13:22:19;;;;;;;16.95;7.25;;;23.40;99.90;;;;;;5039743;28;20048;-76
2023/10/11 13:24:47;;;;;;;17.65;7.22;;;23.40;99.90;;;;;;5024776;28;20029;-76
2023/10/11 13:27:13;;;;;;;14.60;6.72;;;23.30;99.90;;;;;;5037578;28;20029;-76
2023/10/11 13:29:38;;;;;;;17.10;7.45;;;23.30;99.90;;;;;;5036261;28;20467;-76
2023/10/11 13:32:04;;;;;;;14.57;7.35;;;23.40;99.90;;;;;;5022538;28;20039;-77
2023/10/11 13:34:33;;;;;;;17.90;7.88;;;23.40;99.90;;;;;;5039579;28;20124;-75
2023/10/11 13:37:00;;;;;;;25.23;7.28;;;23.40;99.90;;;;;;5037942;28;20033;-76
2023/10/11 13:39:27;;;;;;;22.02;7.85;;;23.40;99.90;;;;;;5041533;28;20663;-75
2023/10/11 13:41:58;;;;;;;21.50;8.50;;;23.30;99.90;;;;;;5021966;28;20089;-77
2023/10/11 13:44:25;;;;;;;18.40;7.63;;;23.30;99.90;;;;;;5023714;28;20032;-77
2023/10/11 13:46:55;;;;;;;21.80;8.05;;;23.30;99.90;;;;;;5041699;28;20070;-78
2023/10/11 13:49:25;;;;;;;16.95;7.50;;;23.30;99.90;;;;;;5036743;28;20032;-75
2023/10/11 13:52:01;;;;;;;24.02;8.05;;;23.30;99.90;;;;;;5038482;28;20040;-75